Trumann, AR

10:36 PM CDT on October 24, 2014 (GMT -0500)
Jonesboro Municipal | Change Station
CLOSE
Current Station
Airport
Location: Jonesboro,
Elevation: 262 ft
Nearby Weather Stations

Elev 262 ft 35.83 °N, 90.65 °W | Updated 43 minutes ago

Clear
Clear
63 °F
Feels Like 63 °F
N
5
Wind Variable Wind from WSW

Today
High -- | Low -- °F
--% Chance of Precip.
Yesterday
High -- | Low -- °F
Precip. -- in
7:16 AM 6:15 PM
New Moon, 2% visible
Pressure 30.07 in
Visibility 10.0 miles
Clouds Clear
Dew Point 56 °F
Humidity 78%
Rainfall 0.00 in
Snow Depth Not available.
UV 0 out of 12
Pollen 1.00 out of 12
Ozone Good
PM2.5 Moderate
Flu Activity Sporadic
METAR KJBR 250253Z AUTO 25004KT 10SM CLR 17/13 A3008 RMK AO2 SLP183 T01720133 53003

More Conditions Fewer Conditions

Pressure 30.07 in
Visibility 10.0 miles
Clouds Clear
Dew Point 56 °F
Humidity 78%
Rainfall 0.00 in
Snow Depth Not available.
UV 0 out of 12
Pollen 1.00 out of 12
Ozone Good
PM2.5 Moderate
Flu Activity Sporadic
METAR KJBR 250253Z AUTO 25004KT 10SM CLR 17/13 A3008 RMK AO2 SLP183 T01720133 53003

More Conditions Fewer Conditions

10-Day Weather Forecast

Almanac

Astronomy

Oct. 24, 2014 Rise Set
Actual Time 7:16 AM CDT 6:15 PM CDT
Civil Twilight 6:50 AM CDT 6:41 PM CDT
Nautical Twilight 6:20 AM CDT 7:11 PM CDT
Astronomical Twilight 5:51 AM CDT 7:40 PM CDT
Moon 7:54 AM CDT (10/24) 6:57 PM CDT (10/24)
Length of Visible Light 11h 50m
Length of Day
10h 58m
Tomorrow will be 2m 4s shorter.
New Moon, 2% of the Moon is Illuminated
Today
New Moon
Oct 30
First Quarter
Nov 6
Full
Nov 14
Last Quarter
Nov 22
New

Today's Extremes

State Highs State Lows

Community

WunderPhotos

Upload Photos

1,764,771 photos uploaded!

Nearby

Air Quality

  Air Quality AQ Index Pollutant
Yesterday Good
PM2.5
Yesterday Good
OZONE
Current Moderate
PM2.5
Current Good
OZONE
Friday Good
OZONE
Friday Good
PM2.5
Saturday Moderate
PM2.5
Saturday Good
OZONE
Sunday Moderate
PM2.5
Sunday Good
OZONE

Snow Depth

Station Depth Elevation
No new snow has been reported.

Earthquake Activity

City Distance Mag. Time & Date
No recent earthquake activity has been reported nearby.
Minimum magnitude displayed is 2.5.

Coastal Water Temperatures

Place Temperature
No Stations Reporting

Nearby Weather Stations